createdAt,value
2019-03-28T00:01:43.146Z,101637.25
2019-03-28T00:04:12.857Z,101639.38
2019-03-28T00:06:42.542Z,101638.41
2019-03-28T00:09:12.181Z,101632.67
2019-03-28T00:11:41.874Z,101629.50
2019-03-28T00:14:11.563Z,101632.12
2019-03-28T00:16:41.200Z,101630.30
2019-03-28T00:19:10.967Z,101628.92
2019-03-28T00:21:40.614Z,101628.00
2019-03-28T00:24:27.848Z,101618.28
2019-03-28T00:26:57.509Z,101618.22
2019-03-28T00:29:27.179Z,101614.25
2019-03-28T00:31:56.826Z,101618.60
2019-03-28T00:34:26.506Z,101622.09
2019-03-28T00:36:56.139Z,101622.95
2019-03-28T00:39:25.828Z,101625.58
2019-03-28T00:41:55.898Z,101625.09
2019-03-28T00:44:25.585Z,101625.06
2019-03-28T00:46:55.234Z,101636.02
2019-03-28T00:49:24.898Z,101632.91
2019-03-28T00:51:54.587Z,101635.08
2019-03-28T00:54:26.641Z,101638.57
2019-03-28T00:56:56.304Z,101637.70
2019-03-28T00:59:26.136Z,101636.87
2019-03-28T01:01:56.099Z,101642.13
2019-03-28T01:04:25.806Z,101638.19
2019-03-28T01:06:55.503Z,101634.29
2019-03-28T01:09:25.249Z,101629.48
2019-03-28T01:11:55.019Z,101629.03
2019-03-28T01:14:24.652Z,101627.72
2019-03-28T01:16:54.381Z,101624.23
2019-03-28T01:19:24.073Z,101619.81
2019-03-28T01:21:53.750Z,101618.95
2019-03-28T01:24:23.514Z,101623.75
2019-03-28T01:26:57.588Z,101613.21
2019-03-28T01:29:24.623Z,101619.33
2019-03-28T01:31:54.377Z,101618.88
2019-03-28T01:34:24.027Z,101617.15
2019-03-28T01:36:53.710Z,101610.59
2019-03-28T01:39:23.435Z,101612.76
2019-03-28T01:41:53.093Z,101605.75
2019-03-28T01:44:22.795Z,101607.52
2019-03-28T01:46:52.572Z,101601.77
2019-03-28T01:49:23.061Z,101606.98
2019-03-28T01:51:52.755Z,101606.58
2019-03-28T01:54:22.461Z,101600.88
2019-03-28T01:56:52.127Z,101602.60
2019-03-28T01:59:21.844Z,101596.91
2019-03-28T02:01:51.506Z,101597.35
2019-03-28T02:04:21.226Z,101599.49
2019-03-28T02:06:50.852Z,101599.94
2019-03-28T02:09:20.483Z,101600.80
2019-03-28T02:11:50.126Z,101600.36
2019-03-28T02:14:19.733Z,101601.25
2019-03-28T02:16:49.403Z,101600.36
2019-03-28T02:19:19.346Z,101600.84
2019-03-28T02:21:49.198Z,101602.13
2019-03-28T02:24:18.828Z,101599.49
2019-03-28T02:26:48.506Z,101597.31
2019-03-28T02:29:18.128Z,101601.70
2019-03-28T02:31:47.884Z,101596.42
2019-03-28T02:34:17.598Z,101599.49
2019-03-28T02:36:47.249Z,101600.39
2019-03-28T02:39:16.876Z,101597.31
2019-03-28T02:41:46.556Z,101596.42
2019-03-28T02:44:16.156Z,101597.31
2019-03-28T02:46:45.823Z,101603.84
2019-03-28T02:49:15.473Z,101604.67
2019-03-28T02:51:45.128Z,101596.80
2019-03-28T02:54:14.901Z,101605.09
2019-03-28T02:56:44.547Z,101610.34
2019-03-28T02:59:14.181Z,101608.58
2019-03-28T03:01:43.885Z,101608.16
2019-03-28T03:04:13.510Z,101608.16
2019-03-28T03:06:43.194Z,101612.09
2019-03-28T03:09:12.779Z,101612.09
2019-03-28T03:11:43.101Z,101615.17
2019-03-28T03:14:12.858Z,101620.42
2019-03-28T03:16:42.546Z,101626.57
2019-03-28T03:19:12.135Z,101620.91
2019-03-28T03:21:41.828Z,101623.98
2019-03-28T03:24:11.537Z,101627.06
2019-03-28T03:26:41.259Z,101625.75
2019-03-28T03:29:10.919Z,101632.31
2019-03-28T03:31:40.610Z,101624.44
2019-03-28T03:34:10.209Z,101634.94
2019-03-28T03:36:39.826Z,101631.41
2019-03-28T03:39:10.152Z,101627.06
2019-03-28T03:41:39.795Z,101628.38
2019-03-28T03:44:09.533Z,101632.31
2019-03-28T03:46:39.232Z,101629.27
2019-03-28T03:49:09.005Z,101634.52
2019-03-28T03:51:38.646Z,101632.34
2019-03-28T03:54:08.355Z,101632.34
2019-03-28T03:56:38.483Z,101634.56
2019-03-28T03:59:08.174Z,101632.34
2019-03-28T04:01:37.853Z,101631.94
2019-03-28T04:04:07.568Z,101636.70
2019-03-28T04:06:37.255Z,101636.66
2019-03-28T04:09:07.702Z,101637.03
2019-03-28T04:11:38.257Z,101642.73
2019-03-28T04:14:08.023Z,101644.05
2019-03-28T04:16:37.700Z,101638.84
2019-03-28T04:19:07.400Z,101646.75
2019-03-28T04:21:37.078Z,101646.30
2019-03-28T04:24:06.858Z,101650.28
2019-03-28T04:26:36.573Z,101652.00
2019-03-28T04:29:06.262Z,101662.09
2019-03-28T04:31:35.886Z,101657.25
2019-03-28T04:34:07.757Z,101653.35
2019-03-28T04:36:37.024Z,101657.29
2019-03-28T04:39:07.019Z,101654.63
2019-03-28T04:41:36.711Z,101659.88
2019-03-28T04:44:06.412Z,101660.78
2019-03-28T04:46:36.179Z,101659.05
2019-03-28T04:49:05.860Z,101662.99
2019-03-28T04:51:35.655Z,101663.89
2019-03-28T04:54:05.441Z,101669.14
2019-03-28T04:56:35.069Z,101670.45
2019-03-28T04:59:04.740Z,101667.37
2019-03-28T05:01:34.511Z,101671.77
2019-03-28T05:04:04.190Z,101669.14
2019-03-28T05:06:33.851Z,101663.89
2019-03-28T05:09:04.215Z,101670.87
2019-03-28T05:11:33.871Z,101671.31
2019-03-28T05:14:03.561Z,101675.25
2019-03-28T05:16:33.167Z,101676.16
2019-03-28T05:19:02.963Z,101675.30
2019-03-28T05:21:32.650Z,101683.17
2019-03-28T05:24:02.349Z,101679.64
2019-03-28T05:26:32.092Z,101688.88
2019-03-28T05:29:01.797Z,101684.48
2019-03-28T05:31:31.456Z,101688.84
2019-03-28T05:34:01.135Z,101687.52
2019-03-28T05:36:30.795Z,101694.09
2019-03-28T05:39:00.483Z,101689.32
2019-03-28T05:41:30.094Z,101690.19
2019-03-28T05:43:59.804Z,101685.76
2019-03-28T05:46:29.642Z,101691.50
2019-03-28T05:48:59.331Z,101688.45
2019-03-28T05:51:29.180Z,101695.92
2019-03-28T05:53:58.854Z,101695.96
2019-03-28T05:56:28.550Z,101692.02
2019-03-28T05:59:10.150Z,101697.28
2019-03-28T06:01:29.749Z,101696.45
2019-03-28T06:03:59.359Z,101691.61
2019-03-28T06:06:29.103Z,101693.86
2019-03-28T06:08:59.911Z,101691.23
2019-03-28T06:11:29.585Z,101697.84
2019-03-28T06:13:59.237Z,101696.98
2019-03-28T06:16:28.905Z,101695.66
2019-03-28T06:18:58.737Z,101697.87
2019-03-28T06:21:28.806Z,101697.02
2019-03-28T06:23:58.460Z,101697.02
2019-03-28T06:26:28.133Z,101694.42
2019-03-28T06:28:57.810Z,101700.16
2019-03-28T06:31:27.449Z,101697.57
2019-03-28T06:33:57.136Z,101697.61
2019-03-28T06:36:26.916Z,101692.39
2019-03-28T06:38:58.810Z,101695.09
2019-03-28T06:41:28.545Z,101693.39
2019-03-28T06:43:58.211Z,101689.94
2019-03-28T06:46:27.986Z,101693.91
2019-03-28T06:48:57.685Z,101657.75
2019-03-28T06:51:27.389Z,101694.53
2019-03-28T06:53:57.295Z,101697.67
2019-03-28T06:56:26.993Z,101695.08
2019-03-28T06:58:56.620Z,101695.11
2019-03-28T07:01:30.182Z,101695.55
2019-03-28T07:03:59.908Z,101692.55
2019-03-28T07:06:29.550Z,101695.69
2019-03-28T07:08:59.257Z,101694.40
2019-03-28T07:11:31.179Z,101693.15
2019-03-28T07:14:00.850Z,101693.20
2019-03-28T07:16:30.587Z,101690.67
2019-03-28T07:19:00.304Z,101688.95
2019-03-28T07:21:29.931Z,101693.02
2019-03-28T07:23:59.592Z,101691.78
2019-03-28T07:26:29.297Z,101693.63
2019-03-28T07:28:59.461Z,101695.47
2019-03-28T07:31:29.190Z,101694.23
2019-03-28T07:33:58.861Z,101695.67
2019-03-28T07:36:28.495Z,101704.55
2019-03-28T07:38:58.121Z,101699.80
2019-03-28T07:41:27.884Z,101696.00
2019-03-28T07:43:57.584Z,101697.38
2019-03-28T07:46:27.299Z,101698.73
2019-03-28T07:48:56.964Z,101705.80
2019-03-28T07:51:27.629Z,101702.31
2019-03-28T07:53:57.389Z,101703.25
2019-03-28T07:56:27.098Z,101696.25
2019-03-28T07:58:56.769Z,101700.69
2019-03-28T08:01:26.488Z,101696.75
2019-03-28T08:03:56.133Z,101699.00
2019-03-28T08:06:25.835Z,101702.09
2019-03-28T08:08:55.544Z,101704.34
2019-03-28T08:11:25.505Z,101710.11
2019-03-28T08:13:55.386Z,101716.28
2019-03-28T08:16:28.619Z,101718.09
2019-03-28T08:18:56.466Z,101728.21
2019-03-28T08:21:26.255Z,101725.16
2019-03-28T08:23:55.916Z,101723.44
2019-03-28T08:26:26.474Z,101722.55
2019-03-28T08:28:56.251Z,101720.39
2019-03-28T08:31:26.071Z,101721.74
2019-03-28T08:34:01.833Z,101730.14
2019-03-28T08:36:31.617Z,101738.95
2019-03-28T08:39:01.279Z,101739.83
2019-03-28T08:41:30.980Z,101747.30
2019-03-28T08:44:00.728Z,101754.35
2019-03-28T08:46:30.433Z,101756.08
2019-03-28T08:49:00.076Z,101758.67
2019-03-28T08:51:29.793Z,101757.35
2019-03-28T08:53:59.603Z,101752.13
2019-03-28T08:56:41.720Z,101754.77
2019-03-28T08:59:11.436Z,101762.72
2019-03-28T09:01:41.165Z,101764.49
2019-03-28T09:04:10.874Z,101768.03
2019-03-28T09:06:40.597Z,101769.77
2019-03-28T09:09:10.532Z,101771.53
2019-03-28T09:11:40.259Z,101774.17
2019-03-28T09:14:09.935Z,101777.69
2019-03-28T09:16:40.449Z,101777.23
2019-03-28T09:19:10.178Z,101782.47
2019-03-28T09:21:39.942Z,101784.67
2019-03-28T09:24:09.601Z,101783.84
2019-03-28T09:26:39.291Z,101786.48
2019-03-28T09:29:08.961Z,101783.44
2019-03-28T09:31:38.612Z,101779.10
2019-03-28T09:34:08.364Z,101782.17
2019-03-28T09:36:38.093Z,101778.25
2019-03-28T09:39:08.937Z,101766.85
2019-03-28T09:41:38.628Z,101770.83
2019-03-28T09:44:08.279Z,101755.05
2019-03-28T09:46:38.021Z,101756.41
2019-03-28T09:49:07.694Z,101752.52
2019-03-28T09:51:38.531Z,101757.36
2019-03-28T09:54:08.651Z,101759.55
2019-03-28T09:56:38.359Z,101756.88
2019-03-28T09:59:07.993Z,101764.78
2019-03-28T10:01:37.705Z,101765.19
2019-03-28T10:04:07.411Z,101760.73
2019-03-28T10:06:38.791Z,101761.16
2019-03-28T10:09:08.979Z,101754.94
2019-03-28T10:11:38.728Z,101750.90
2019-03-28T10:14:08.374Z,101758.31
2019-03-28T10:16:40.346Z,101763.03
2019-03-28T10:19:09.567Z,101753.23
2019-03-28T10:21:39.230Z,101752.26
2019-03-28T10:24:08.920Z,101751.59
2019-03-28T10:26:39.453Z,101752.48
2019-03-28T10:29:09.564Z,101753.33
2019-03-28T10:31:39.445Z,101752.55
2019-03-28T10:34:10.344Z,101747.05
2019-03-28T10:36:40.092Z,101748.74
2019-03-28T10:39:10.314Z,101748.86
2019-03-28T10:41:42.606Z,101744.11
2019-03-28T10:44:12.337Z,101746.77
2019-03-28T10:46:42.288Z,101752.80
2019-03-28T10:49:12.017Z,101752.64
2019-03-28T10:51:41.809Z,101749.00
2019-03-28T10:54:19.839Z,101750.56
2019-03-28T10:56:51.767Z,101749.97
2019-03-28T10:59:23.217Z,101747.10
2019-03-28T11:01:50.546Z,101747.84
2019-03-28T11:04:18.316Z,101746.81
2019-03-28T11:06:48.064Z,101743.59
2019-03-28T11:09:17.781Z,101733.16
2019-03-28T11:11:47.959Z,101743.00
2019-03-28T11:14:17.642Z,101747.58
2019-03-28T11:16:48.363Z,101754.21
2019-03-28T11:19:18.303Z,101746.23
2019-03-28T11:21:48.104Z,101739.78
2019-03-28T11:24:17.863Z,101735.55
2019-03-28T11:26:47.654Z,101734.70
2019-03-28T11:29:17.415Z,101735.52
2019-03-28T11:31:51.967Z,101734.20
2019-03-28T11:34:18.634Z,101734.56
2019-03-28T11:36:48.361Z,101736.27
2019-03-28T11:39:18.114Z,101734.45
2019-03-28T11:41:47.995Z,101735.31
2019-03-28T11:44:18.046Z,101751.73
2019-03-28T11:46:47.836Z,101737.97
2019-03-28T11:49:17.581Z,101737.50
2019-03-28T11:51:47.312Z,101743.13
2019-03-28T11:54:17.044Z,101745.73
2019-03-28T11:56:46.796Z,101744.33
2019-03-28T11:59:16.482Z,101744.66
2019-03-28T12:01:59.118Z,101743.00
2019-03-28T12:04:17.790Z,101742.25
2019-03-28T12:06:49.096Z,101714.41
2019-03-28T12:09:19.119Z,101741.84
2019-03-28T12:11:49.017Z,101737.67
2019-03-28T12:14:18.779Z,101748.95
2019-03-28T12:16:48.557Z,101744.39
2019-03-28T12:19:18.636Z,101735.75
2019-03-28T12:21:48.440Z,101731.15
2019-03-28T12:24:18.200Z,101729.22
2019-03-28T12:26:47.951Z,101730.71
2019-03-28T12:29:18.133Z,101733.11
2019-03-28T12:31:47.946Z,101732.80
2019-03-28T12:34:17.605Z,101737.34
2019-03-28T12:36:47.367Z,101730.41
2019-03-28T12:39:17.241Z,101732.30
2019-03-28T12:41:47.032Z,101729.36
2019-03-28T12:44:16.779Z,101723.20
2019-03-28T12:46:46.526Z,101723.67
2019-03-28T12:49:16.229Z,101727.68
2019-03-28T12:51:45.951Z,101727.25
2019-03-28T12:54:15.637Z,101722.88
2019-03-28T12:56:45.422Z,101722.02
2019-03-28T12:59:15.476Z,101724.67
2019-03-28T13:01:45.354Z,101724.70
2019-03-28T13:04:15.078Z,101723.87
2019-03-28T13:06:44.889Z,101723.87
2019-03-28T13:09:14.656Z,101723.89
2019-03-28T13:11:45.687Z,101717.30
2019-03-28T13:14:15.464Z,101717.30
2019-03-28T13:16:45.351Z,101711.60
2019-03-28T13:19:15.322Z,101716.00
2019-03-28T13:21:49.313Z,101706.80
2019-03-28T13:24:19.710Z,101710.78
2019-03-28T13:26:49.590Z,101703.78
2019-03-28T13:29:22.720Z,101702.89
2019-03-28T13:31:52.802Z,101700.25
2019-03-28T13:34:22.949Z,101696.25
2019-03-28T13:36:52.965Z,101693.11
2019-03-28T13:39:22.970Z,101689.58
2019-03-28T13:41:52.999Z,101689.95
2019-03-28T13:44:22.951Z,101691.27
2019-03-28T13:46:53.202Z,101694.81
2019-03-28T13:49:23.182Z,101687.77
2019-03-28T13:51:53.245Z,101690.34
2019-03-28T13:54:23.506Z,101685.95
2019-03-28T13:56:53.423Z,101688.56
2019-03-28T13:59:23.942Z,101683.70
2019-03-28T14:01:54.139Z,101679.75
2019-03-28T14:04:24.123Z,101685.91
2019-03-28T14:06:54.327Z,101678.89
2019-03-28T14:09:24.521Z,101678.00
2019-03-28T14:11:54.705Z,101678.00
2019-03-28T14:14:24.550Z,101679.78
2019-03-28T14:16:54.494Z,101675.84
2019-03-28T14:19:24.460Z,101680.71
2019-03-28T14:21:54.605Z,101675.41
2019-03-28T14:24:24.527Z,101676.77
2019-03-28T14:26:54.357Z,101672.80
2019-03-28T14:29:24.253Z,101672.36
2019-03-28T14:31:54.191Z,101673.28
2019-03-28T14:34:24.143Z,101677.71
2019-03-28T14:36:54.132Z,101669.83
2019-03-28T14:39:23.922Z,101687.48
2019-03-28T14:41:53.843Z,101674.28
2019-03-28T14:44:23.941Z,101691.50
2019-03-28T14:46:54.310Z,101675.22
2019-03-28T14:49:24.178Z,101673.02
2019-03-28T14:51:56.687Z,101673.91
2019-03-28T14:54:26.516Z,101663.78
2019-03-28T14:56:56.456Z,101666.86
2019-03-28T14:59:32.300Z,101671.70
2019-03-28T15:01:58.033Z,101665.54
2019-03-28T15:04:27.912Z,101666.86
2019-03-28T15:06:58.100Z,101663.34
2019-03-28T15:09:27.940Z,101664.26
2019-03-28T15:11:58.018Z,101662.49
2019-03-28T15:14:27.814Z,101657.22
2019-03-28T15:16:57.755Z,101657.23
2019-03-28T15:19:27.665Z,101658.57
2019-03-28T15:21:57.785Z,101656.81
2019-03-28T15:24:27.697Z,101657.23
2019-03-28T15:26:58.006Z,101656.38
2019-03-28T15:29:27.876Z,101653.75
2019-03-28T15:31:57.848Z,101650.27
2019-03-28T15:34:27.810Z,101647.17
2019-03-28T15:36:57.679Z,101645.86
2019-03-28T15:39:27.567Z,101632.62
2019-03-28T15:41:57.591Z,101643.20
2019-03-28T15:44:27.731Z,101641.88
2019-03-28T15:46:57.749Z,101645.82
2019-03-28T15:49:27.924Z,101643.17
2019-03-28T15:51:58.069Z,101637.02
2019-03-28T15:54:27.926Z,101641.00
2019-03-28T15:56:58.716Z,101638.80
2019-03-28T15:59:28.912Z,101638.34
2019-03-28T16:01:59.996Z,101648.05
2019-03-28T16:04:30.197Z,101642.78
2019-03-28T16:07:04.274Z,101640.13
2019-03-28T16:09:34.302Z,101642.79
2019-03-28T16:12:25.768Z,101636.63
2019-03-28T16:15:02.063Z,101644.58
2019-03-28T16:17:32.400Z,101645.89
2019-03-28T16:20:02.630Z,101641.50
2019-03-28T16:22:37.702Z,101642.84
2019-03-28T16:25:07.356Z,101642.83
2019-03-28T16:27:50.086Z,101636.67
2019-03-28T16:30:49.105Z,101641.06
2019-03-28T16:33:20.115Z,101645.05
2019-03-28T16:36:13.893Z,101645.51
2019-03-28T16:38:56.873Z,101645.94
2019-03-28T16:52:25.146Z,101645.48
2019-03-28T16:54:55.653Z,101642.83
2019-03-28T16:57:26.298Z,101640.18
2019-03-28T16:59:56.838Z,101644.13
2019-03-28T17:02:27.075Z,101642.38
2019-03-28T17:05:07.991Z,101643.27
2019-03-28T17:08:54.614Z,101639.73
2019-03-28T17:11:53.990Z,101645.03
2019-03-28T17:14:29.967Z,101648.53
2019-03-28T17:17:08.222Z,101644.11
2019-03-28T17:19:42.988Z,101652.92
2019-03-28T17:22:12.990Z,101652.05
2019-03-28T17:24:42.807Z,101655.99
2019-03-28T17:27:12.678Z,101646.72
2019-03-28T17:29:42.534Z,101651.09
2019-03-28T17:32:12.692Z,101653.73
2019-03-28T17:34:45.846Z,101653.75
2019-03-28T17:37:14.016Z,101647.13
2019-03-28T17:39:43.869Z,101641.86
2019-03-28T17:42:13.591Z,101646.70
2019-03-28T17:44:43.322Z,101652.84
2019-03-28T17:47:13.135Z,101646.69
2019-03-28T17:49:42.956Z,101651.95
2019-03-28T17:52:23.418Z,101653.70
2019-03-28T17:54:48.757Z,101657.22
2019-03-28T17:57:18.545Z,101656.33
2019-03-28T17:59:48.466Z,101657.66
2019-03-28T18:02:18.385Z,101658.98
2019-03-28T18:04:48.462Z,101657.66
2019-03-28T18:07:18.268Z,101657.63
2019-03-28T18:09:55.731Z,101660.71
2019-03-28T18:12:29.434Z,101665.91
2019-03-28T18:15:00.704Z,101670.30
2019-03-28T18:17:46.871Z,101664.16
2019-03-28T18:20:44.399Z,101668.99
2019-03-28T18:23:14.242Z,101656.66
2019-03-28T18:25:44.124Z,101661.04
2019-03-28T18:28:14.061Z,101663.67
2019-03-28T18:30:43.968Z,101664.09
2019-03-28T18:33:13.708Z,101662.77
2019-03-28T18:35:53.871Z,101661.45
2019-03-28T18:38:30.815Z,101673.25
2019-03-28T18:41:04.837Z,101673.27
2019-03-28T18:43:54.827Z,101669.71
2019-03-28T18:46:28.373Z,101671.91
2019-03-28T18:49:10.336Z,101671.03
2019-03-28T18:51:43.996Z,101681.59
2019-03-28T18:54:22.544Z,101675.84
2019-03-28T18:57:06.771Z,101663.95
2019-03-28T18:59:55.971Z,101668.75
2019-03-28T19:02:31.543Z,101668.32
2019-03-28T19:05:18.672Z,101669.62
2019-03-28T19:07:39.447Z,101670.47
2019-03-28T19:10:14.849Z,101669.59
2019-03-28T19:12:46.180Z,101668.25
2019-03-28T19:15:18.379Z,101666.91
2019-03-28T19:17:48.181Z,101667.73
2019-03-28T19:20:17.957Z,101674.30
2019-03-28T19:22:50.255Z,101670.77
2019-03-28T19:25:19.195Z,101672.95
2019-03-28T19:27:49.071Z,101674.22
2019-03-28T19:30:28.825Z,101663.67
2019-03-28T19:32:58.547Z,101666.77
2019-03-28T19:35:33.216Z,101666.73
2019-03-28T19:37:59.707Z,101663.17
2019-03-28T19:40:29.462Z,101660.50
2019-03-28T19:42:59.218Z,101662.22
2019-03-28T19:45:36.416Z,101663.09
2019-03-28T19:48:06.931Z,101656.92
2019-03-28T19:50:36.763Z,101656.86
2019-03-28T19:53:06.781Z,101660.29
2019-03-28T19:55:39.966Z,101652.75
2019-03-28T19:58:08.176Z,101652.66
2019-03-28T20:00:39.181Z,101653.02
2019-03-28T20:03:08.968Z,101650.34
2019-03-28T20:05:47.426Z,101653.38
2019-03-28T20:08:16.020Z,101644.54
2019-03-28T20:10:42.087Z,101642.72
2019-03-28T20:13:12.376Z,101645.75
2019-03-28T20:15:42.169Z,101649.17
2019-03-28T20:18:12.025Z,101650.44
2019-03-28T20:20:41.768Z,101652.53
2019-03-28T20:23:11.504Z,101652.90
2019-03-28T20:25:42.791Z,101651.50
2019-03-28T20:28:14.343Z,101649.62
2019-03-28T20:30:44.154Z,101653.89
2019-03-28T20:33:13.908Z,101659.50
2019-03-28T20:35:43.642Z,101656.33
2019-03-28T20:38:13.503Z,101663.22
2019-03-28T20:40:43.652Z,101657.86
2019-03-28T20:43:14.389Z,101656.89
2019-03-28T20:45:44.206Z,101659.86
2019-03-28T20:48:14.796Z,101657.55
2019-03-28T20:50:44.704Z,101654.84
2019-03-28T20:53:14.432Z,101656.50
2019-03-28T20:55:44.197Z,101661.19
2019-03-28T20:58:14.138Z,101661.08
2019-03-28T21:00:45.536Z,101663.17
2019-03-28T21:03:15.432Z,101660.91
2019-03-28T21:05:45.187Z,101659.00
2019-03-28T21:08:15.043Z,101653.63
2019-03-28T21:10:44.880Z,101651.78
2019-03-28T21:13:14.667Z,101653.42
2019-03-28T21:15:45.779Z,101656.78
2019-03-28T21:18:15.642Z,101654.97
2019-03-28T21:20:45.590Z,101662.34
2019-03-28T21:23:15.286Z,101655.70
2019-03-28T21:25:45.111Z,101659.59
2019-03-28T21:28:14.775Z,101659.47
2019-03-28T21:30:47.600Z,101662.00
2019-03-28T21:33:15.974Z,101660.60
2019-03-28T21:35:45.693Z,101663.55
2019-03-28T21:38:15.475Z,101664.77
2019-03-28T21:40:45.238Z,101668.23
2019-03-28T21:43:15.033Z,101664.62
2019-03-28T21:45:44.774Z,101664.98
2019-03-28T21:48:14.615Z,101667.50
2019-03-28T21:50:44.387Z,101675.31
2019-03-28T21:53:14.131Z,101674.36
2019-03-28T21:55:54.301Z,101673.84
2019-03-28T21:58:15.172Z,101679.40
2019-03-28T22:00:44.776Z,101677.13
2019-03-28T22:03:14.421Z,101672.23
2019-03-28T22:05:44.030Z,101666.50
2019-03-28T22:08:13.771Z,101668.12
2019-03-28T22:10:43.408Z,101665.84
2019-03-28T22:13:13.107Z,101667.95
2019-03-28T22:15:42.739Z,101669.20
2019-03-28T22:18:12.427Z,101669.55
2019-03-28T22:20:42.193Z,101671.27
2019-03-28T22:23:13.544Z,101672.53
2019-03-28T22:25:43.162Z,101669.84
2019-03-28T22:28:12.914Z,101669.34
2019-03-28T22:30:42.559Z,101670.59
2019-03-28T22:33:12.194Z,101668.78
2019-03-28T22:35:42.066Z,101674.41
2019-03-28T22:38:11.718Z,101682.61
2019-03-28T22:40:43.774Z,101678.23
2019-03-28T22:43:12.905Z,101682.05
2019-03-28T22:45:43.807Z,101676.71
2019-03-28T22:48:13.501Z,101670.52
2019-03-28T22:50:43.181Z,101668.69
2019-03-28T22:53:15.497Z,101671.70
2019-03-28T22:55:45.093Z,101669.83
2019-03-28T22:58:14.850Z,101667.20
2019-03-28T23:00:45.782Z,101669.31
2019-03-28T23:03:15.727Z,101665.77
2019-03-28T23:05:45.409Z,101667.48
2019-03-28T23:08:15.115Z,101663.50
2019-03-28T23:10:44.882Z,101664.30
2019-03-28T23:13:14.599Z,101665.16
2019-03-28T23:15:44.263Z,101666.36
2019-03-28T23:18:13.938Z,101664.95
2019-03-28T23:20:43.575Z,101666.66
2019-03-28T23:23:13.217Z,101659.20
2019-03-28T23:25:42.846Z,101663.92
2019-03-28T23:28:12.518Z,101659.75
2019-03-28T23:30:42.235Z,101654.06
2019-03-28T23:33:12.034Z,101653.61
2019-03-28T23:35:41.657Z,101662.71
2019-03-28T23:38:11.325Z,101656.51
2019-03-28T23:40:40.985Z,101659.56
2019-03-28T23:43:10.606Z,101655.98
2019-03-28T23:45:40.263Z,101652.85
2019-03-28T23:48:10.090Z,101665.02
2019-03-28T23:50:39.705Z,101663.65
2019-03-28T23:53:09.367Z,101654.84
2019-03-28T23:55:38.996Z,101652.20
2019-03-28T23:58:08.594Z,101654.77
